createdAt,value
2023-08-16T00:01:16.262Z,25.31
2023-08-16T00:03:43.392Z,25.19
2023-08-16T00:06:10.338Z,25.28
2023-08-16T00:08:37.240Z,25.27
2023-08-16T00:11:04.116Z,25.19
2023-08-16T00:13:30.954Z,25.28
2023-08-16T00:15:58.289Z,25.18
2023-08-16T00:18:25.164Z,25.22
2023-08-16T00:20:52.254Z,25.23
2023-08-16T00:23:19.244Z,25.30
2023-08-16T00:25:46.167Z,25.29
2023-08-16T00:28:13.137Z,25.22
2023-08-16T00:30:39.982Z,25.19
2023-08-16T00:33:06.971Z,25.11
2023-08-16T00:35:34.062Z,24.96
2023-08-16T00:38:00.902Z,24.94
2023-08-16T00:40:27.979Z,24.98
2023-08-16T00:42:54.820Z,24.98
2023-08-16T00:45:21.736Z,24.94
2023-08-16T00:47:48.958Z,24.83
2023-08-16T00:50:15.839Z,25.04
2023-08-16T00:52:42.813Z,25.07
2023-08-16T00:55:09.733Z,25.12
2023-08-16T00:57:36.685Z,25.09
2023-08-16T01:00:03.698Z,25.14
2023-08-16T01:02:30.605Z,25.09
2023-08-16T01:04:57.476Z,25.13
2023-08-16T01:07:24.590Z,25.08
2023-08-16T01:09:51.837Z,25.08
2023-08-16T01:12:18.630Z,24.99
2023-08-16T01:14:45.505Z,24.94
2023-08-16T01:17:12.528Z,24.96
2023-08-16T01:19:39.396Z,24.91
2023-08-16T01:22:06.318Z,24.87
2023-08-16T01:24:33.358Z,24.98
2023-08-16T01:27:00.217Z,24.99
2023-08-16T01:29:27.314Z,25.01
2023-08-16T01:31:54.194Z,25.16
2023-08-16T01:34:21.069Z,25.09
2023-08-16T01:36:47.920Z,25.11
2023-08-16T01:39:14.767Z,25.25
2023-08-16T01:41:41.688Z,25.25
2023-08-16T01:44:08.574Z,25.23
2023-08-16T01:46:35.522Z,25.20
2023-08-16T01:49:02.522Z,25.03
2023-08-16T01:51:29.482Z,24.96
2023-08-16T01:53:56.691Z,25.00
2023-08-16T01:56:23.565Z,24.91
2023-08-16T01:58:50.436Z,24.93
2023-08-16T02:01:17.277Z,24.97
2023-08-16T02:03:44.404Z,24.97
2023-08-16T02:06:11.471Z,24.93
2023-08-16T02:08:38.318Z,24.95
2023-08-16T02:11:05.114Z,24.90
2023-08-16T02:13:31.963Z,24.96
2023-08-16T02:15:58.828Z,24.87
2023-08-16T02:18:25.730Z,24.87
2023-08-16T02:20:52.630Z,24.85
2023-08-16T02:23:19.556Z,24.64
2023-08-16T02:25:46.402Z,24.47
2023-08-16T02:28:13.287Z,24.49
2023-08-16T02:30:40.101Z,24.45
2023-08-16T02:33:07.048Z,24.28
2023-08-16T02:35:34.148Z,24.38
2023-08-16T02:38:01.044Z,24.45
2023-08-16T02:40:28.221Z,24.69
2023-08-16T02:42:55.063Z,24.56
2023-08-16T02:45:21.864Z,24.54
2023-08-16T02:47:48.765Z,24.60
2023-08-16T02:50:15.650Z,24.62
2023-08-16T02:52:42.662Z,24.68
2023-08-16T02:55:09.571Z,24.67
2023-08-16T02:57:36.543Z,24.54
2023-08-16T03:00:03.458Z,24.80
2023-08-16T03:02:30.600Z,24.78
2023-08-16T03:04:57.436Z,24.77
2023-08-16T03:07:24.477Z,24.92
2023-08-16T03:09:51.568Z,24.69
2023-08-16T03:12:18.461Z,24.75
2023-08-16T03:14:45.331Z,24.70
2023-08-16T03:17:12.273Z,24.64
2023-08-16T03:19:39.153Z,24.60
2023-08-16T03:22:06.058Z,24.63
2023-08-16T03:24:32.984Z,24.68
2023-08-16T03:26:59.949Z,24.33
2023-08-16T03:29:26.829Z,24.44
2023-08-16T03:31:53.695Z,24.52
2023-08-16T03:34:20.576Z,24.61
2023-08-16T03:36:47.589Z,24.77
2023-08-16T03:39:14.589Z,24.68
2023-08-16T03:41:41.496Z,24.78
2023-08-16T03:44:08.466Z,24.83
2023-08-16T03:46:35.355Z,24.84
2023-08-16T03:49:02.339Z,24.73
2023-08-16T03:51:29.346Z,24.80
2023-08-16T03:53:56.324Z,24.71
2023-08-16T03:56:23.293Z,24.64
2023-08-16T03:58:50.148Z,24.71
2023-08-16T04:01:16.977Z,24.76
2023-08-16T04:03:43.884Z,24.51
2023-08-16T04:06:10.774Z,24.53
2023-08-16T04:08:37.633Z,24.64
2023-08-16T04:11:04.559Z,24.66
2023-08-16T04:13:31.514Z,24.59
2023-08-16T04:15:58.361Z,24.69
2023-08-16T04:18:25.167Z,24.69
2023-08-16T04:20:52.052Z,24.73
2023-08-16T04:23:18.969Z,24.60
2023-08-16T04:25:45.905Z,24.66
2023-08-16T04:28:12.889Z,24.74
2023-08-16T04:30:39.734Z,24.75
2023-08-16T04:33:06.689Z,24.75
2023-08-16T04:35:33.735Z,24.71
2023-08-16T04:38:00.596Z,24.54
2023-08-16T04:40:27.488Z,24.74
2023-08-16T04:42:54.385Z,24.73
2023-08-16T04:45:21.283Z,24.74
2023-08-16T04:47:48.426Z,24.68
2023-08-16T04:50:15.321Z,24.59
2023-08-16T04:52:42.244Z,24.56
2023-08-16T04:55:09.266Z,24.54
2023-08-16T04:57:36.206Z,24.39
2023-08-16T05:00:03.055Z,24.24
2023-08-16T05:02:30.154Z,24.25
2023-08-16T05:04:57.060Z,24.48
2023-08-16T05:07:24.203Z,24.56
2023-08-16T05:09:51.193Z,24.63
2023-08-16T05:12:18.187Z,24.58
2023-08-16T05:14:45.194Z,24.20
2023-08-16T05:17:12.056Z,24.31
2023-08-16T05:19:39.123Z,24.68
2023-08-16T05:22:05.972Z,24.69
2023-08-16T05:24:32.833Z,24.58
2023-08-16T05:26:59.849Z,24.54
2023-08-16T05:29:29.400Z,24.55
2023-08-16T05:31:56.637Z,24.53
2023-08-16T05:34:23.675Z,24.46
2023-08-16T05:36:51.367Z,24.42
2023-08-16T05:39:18.335Z,24.49
2023-08-16T05:41:45.221Z,24.40
2023-08-16T05:44:12.071Z,24.66
2023-08-16T05:46:39.022Z,24.65
2023-08-16T05:49:05.984Z,24.70
2023-08-16T05:51:32.891Z,24.52
2023-08-16T05:53:59.903Z,24.49
2023-08-16T05:56:27.102Z,24.40
2023-08-16T05:58:54.006Z,24.36
2023-08-16T06:01:20.940Z,24.23
2023-08-16T06:03:47.898Z,24.42
2023-08-16T06:06:14.813Z,24.33
2023-08-16T06:08:41.672Z,24.54
2023-08-16T06:11:08.540Z,24.47
2023-08-16T06:13:35.588Z,24.56
2023-08-16T06:16:02.563Z,24.68
2023-08-16T06:18:29.531Z,24.68
2023-08-16T06:20:56.379Z,24.71
2023-08-16T06:23:23.230Z,24.59
2023-08-16T06:25:50.089Z,24.89
2023-08-16T06:28:17.147Z,24.75
2023-08-16T06:30:44.099Z,24.70
2023-08-16T06:33:11.017Z,24.75
2023-08-16T06:35:37.991Z,24.65
2023-08-16T06:38:05.004Z,24.63
2023-08-16T06:40:31.985Z,24.50
2023-08-16T06:42:58.962Z,24.64
2023-08-16T06:45:25.831Z,24.63
2023-08-16T06:47:52.647Z,24.69
2023-08-16T06:50:19.503Z,24.51
2023-08-16T06:52:46.406Z,24.61
2023-08-16T06:55:13.246Z,24.58
2023-08-16T06:57:40.112Z,24.45
2023-08-16T07:00:06.966Z,24.45
2023-08-16T07:02:34.173Z,24.48
2023-08-16T07:05:01.476Z,24.30
2023-08-16T07:07:31.654Z,24.27
2023-08-16T07:09:58.489Z,24.29
2023-08-16T07:12:25.572Z,24.35
2023-08-16T07:14:52.868Z,24.37
2023-08-16T07:17:19.878Z,24.45
2023-08-16T07:19:46.866Z,24.35
2023-08-16T07:22:13.825Z,24.59
2023-08-16T07:24:40.634Z,24.56
2023-08-16T07:27:07.567Z,24.56
2023-08-16T07:29:34.723Z,24.60
2023-08-16T07:32:01.671Z,24.35
2023-08-16T07:34:28.567Z,24.19
2023-08-16T07:36:55.414Z,24.35
2023-08-16T07:39:22.294Z,24.28
2023-08-16T07:41:49.431Z,24.38
2023-08-16T07:44:16.493Z,24.43
2023-08-16T07:46:43.485Z,24.26
2023-08-16T07:49:10.430Z,24.35
2023-08-16T07:51:37.449Z,24.40
2023-08-16T07:54:04.776Z,24.55
2023-08-16T07:56:31.615Z,24.39
2023-08-16T07:58:58.575Z,24.61
2023-08-16T08:01:25.489Z,25.08
2023-08-16T08:03:52.417Z,24.63
2023-08-16T08:06:19.423Z,24.69
2023-08-16T08:08:46.311Z,24.65
2023-08-16T08:11:13.159Z,24.67
2023-08-16T08:13:40.124Z,24.82
2023-08-16T08:16:08.354Z,24.80
2023-08-16T08:18:35.288Z,24.77
2023-08-16T08:21:02.173Z,24.80
2023-08-16T08:23:29.220Z,24.81
2023-08-16T08:25:56.056Z,24.50
2023-08-16T08:28:22.959Z,24.95
2023-08-16T08:30:49.835Z,24.75
2023-08-16T08:33:16.851Z,24.51
2023-08-16T08:35:44.806Z,24.58
2023-08-16T08:38:11.818Z,24.50
2023-08-16T08:40:38.919Z,24.69
2023-08-16T08:43:05.755Z,24.58
2023-08-16T08:45:32.725Z,24.67
2023-08-16T08:47:59.810Z,24.72
2023-08-16T08:50:26.679Z,25.31
2023-08-16T08:52:53.544Z,24.68
2023-08-16T08:55:20.501Z,24.77
2023-08-16T08:57:47.439Z,24.60
2023-08-16T09:00:14.431Z,24.52
2023-08-16T09:02:41.477Z,24.61
2023-08-16T09:05:08.358Z,24.73
2023-08-16T09:07:35.317Z,24.74
2023-08-16T09:10:02.212Z,24.64
2023-08-16T09:12:29.215Z,24.42
2023-08-16T09:14:56.300Z,24.36
2023-08-16T09:17:23.230Z,24.61
2023-08-16T09:19:50.180Z,24.38
2023-08-16T09:22:17.134Z,24.52
2023-08-16T09:24:44.053Z,24.52
2023-08-16T09:27:11.033Z,24.43
2023-08-16T09:29:38.020Z,24.75
2023-08-16T09:32:04.842Z,24.89
2023-08-16T09:37:17.063Z,25.06
2023-08-16T09:39:44.073Z,24.76
2023-08-16T09:42:11.031Z,24.64
2023-08-16T09:44:37.962Z,24.69
2023-08-16T09:47:04.850Z,24.89
2023-08-16T09:49:31.797Z,25.02
2023-08-16T09:54:28.507Z,25.03
2023-08-16T10:09:39.165Z,24.83
2023-08-16T10:12:05.966Z,25.13
2023-08-16T10:14:32.821Z,25.04
2023-08-16T10:16:59.719Z,25.18
2023-08-16T10:19:26.805Z,25.08
2023-08-16T10:21:53.682Z,25.26
2023-08-16T10:24:32.871Z,24.93
2023-08-16T10:27:00.116Z,25.16
2023-08-16T10:29:27.020Z,25.14
2023-08-16T10:31:53.873Z,25.06
2023-08-16T10:34:20.844Z,25.08
2023-08-16T10:36:47.650Z,24.93
2023-08-16T10:39:14.739Z,25.25
2023-08-16T10:41:41.790Z,25.27
2023-08-16T10:44:08.653Z,25.19
2023-08-16T10:46:35.593Z,25.34
2023-08-16T10:49:02.744Z,25.49
2023-08-16T10:51:29.615Z,25.56
2023-08-16T10:53:56.743Z,25.60
2023-08-16T10:56:23.676Z,25.60
2023-08-16T10:58:50.533Z,25.61
2023-08-16T11:01:17.474Z,25.62
2023-08-16T11:03:44.374Z,25.63
2023-08-16T11:06:11.360Z,25.63
2023-08-16T11:08:38.310Z,25.65
2023-08-16T11:11:05.294Z,25.67
2023-08-16T11:13:32.102Z,25.67
2023-08-16T11:15:59.079Z,25.68
2023-08-16T11:18:31.562Z,25.60
2023-08-16T11:21:01.238Z,25.68
2023-08-16T11:23:28.066Z,25.68
2023-08-16T11:25:54.937Z,25.69
2023-08-16T11:28:21.975Z,25.71
2023-08-16T11:30:48.854Z,25.71
2023-08-16T11:33:15.754Z,25.73
2023-08-16T11:35:42.669Z,25.74
2023-08-16T11:38:09.554Z,25.74
2023-08-16T11:40:36.766Z,25.75
2023-08-16T11:43:04.487Z,25.77
2023-08-16T11:45:31.467Z,25.78
2023-08-16T11:47:58.453Z,25.78
2023-08-16T11:50:25.368Z,25.79
2023-08-16T11:52:52.322Z,25.80
2023-08-16T11:55:19.204Z,25.81
2023-08-16T11:57:46.233Z,25.81
2023-08-16T12:00:13.054Z,25.82
2023-08-16T12:02:39.897Z,25.82
2023-08-16T12:05:06.763Z,25.83
2023-08-16T12:07:33.549Z,25.85
2023-08-16T12:10:00.400Z,25.86
2023-08-16T12:12:27.282Z,25.87
2023-08-16T12:14:54.125Z,25.86
2023-08-16T12:17:21.012Z,25.87
2023-08-16T12:19:47.974Z,25.88
2023-08-16T12:22:14.898Z,25.89
2023-08-16T12:24:41.908Z,25.88
2023-08-16T12:27:08.805Z,25.88
2023-08-16T12:29:35.821Z,25.89
2023-08-16T12:32:02.645Z,25.90
2023-08-16T12:34:29.542Z,25.92
2023-08-16T12:36:56.449Z,25.92
2023-08-16T12:39:23.277Z,25.94
2023-08-16T12:41:53.282Z,25.94
2023-08-16T12:44:20.648Z,25.96
2023-08-16T12:46:48.000Z,25.96
2023-08-16T12:49:16.865Z,25.95
2023-08-16T12:51:44.759Z,25.96
2023-08-16T12:54:11.979Z,25.98
2023-08-16T12:56:39.075Z,26.00
2023-08-16T12:59:17.407Z,25.99
2023-08-16T13:01:44.867Z,26.00
2023-08-16T13:04:13.984Z,26.00
2023-08-16T13:06:52.558Z,26.00
2023-08-16T13:11:55.441Z,26.03
2023-08-16T13:17:04.392Z,26.05
2023-08-16T13:19:47.544Z,26.05
2023-08-16T13:22:17.805Z,26.04
2023-08-16T13:24:58.122Z,26.05
2023-08-16T13:27:41.002Z,26.07
2023-08-16T13:30:24.517Z,26.08
2023-08-16T13:33:05.689Z,26.09
2023-08-16T13:35:49.178Z,26.10
2023-08-16T13:38:17.847Z,26.11
2023-08-16T13:40:53.074Z,26.12
2023-08-16T13:43:25.253Z,26.13
2023-08-16T13:45:53.445Z,26.13
2023-08-16T13:48:20.546Z,26.16
2023-08-16T13:50:47.458Z,26.17
2023-08-16T13:53:14.265Z,26.17
2023-08-16T13:55:41.230Z,26.17
2023-08-16T13:58:08.282Z,26.17
2023-08-16T14:00:35.542Z,26.19
2023-08-16T14:03:02.625Z,26.20
2023-08-16T14:05:29.509Z,26.21
2023-08-16T14:07:56.597Z,26.21
2023-08-16T14:10:23.560Z,26.20
2023-08-16T14:12:50.491Z,26.22
2023-08-16T14:15:17.565Z,26.24
2023-08-16T14:17:44.475Z,26.25
2023-08-16T14:20:11.432Z,26.27
2023-08-16T14:22:38.439Z,26.28
2023-08-16T14:25:05.329Z,26.28
2023-08-16T14:27:32.181Z,26.27
2023-08-16T14:29:59.091Z,26.29
2023-08-16T14:32:26.286Z,26.30
2023-08-16T14:34:53.358Z,26.30
2023-08-16T14:37:20.361Z,26.31
2023-08-16T14:39:47.323Z,26.31
2023-08-16T14:42:14.153Z,26.33
2023-08-16T14:44:41.050Z,26.34
2023-08-16T14:47:08.036Z,26.35
2023-08-16T14:49:34.900Z,26.36
2023-08-16T14:52:01.728Z,26.39
2023-08-16T14:54:28.636Z,26.40
2023-08-16T14:56:55.524Z,26.40
2023-08-16T14:59:22.601Z,26.40
2023-08-16T15:01:49.460Z,26.42
2023-08-16T15:04:16.270Z,26.41
2023-08-16T15:06:43.061Z,26.45
2023-08-16T15:09:09.877Z,26.42
2023-08-16T15:11:36.894Z,26.45
2023-08-16T15:14:03.690Z,26.46
2023-08-16T15:16:30.676Z,26.46
2023-08-16T15:18:57.603Z,26.49
2023-08-16T15:21:24.487Z,26.49
2023-08-16T15:23:51.502Z,26.51
2023-08-16T15:26:18.546Z,26.51
2023-08-16T15:28:45.473Z,26.51
2023-08-16T15:31:12.517Z,26.53
2023-08-16T15:33:39.421Z,26.55
2023-08-16T15:36:06.284Z,26.53
2023-08-16T15:38:33.344Z,26.53
2023-08-16T15:41:00.270Z,26.55
2023-08-16T15:43:27.199Z,26.56
2023-08-16T15:45:54.060Z,26.59
2023-08-16T15:48:20.933Z,26.60
2023-08-16T15:50:47.895Z,26.59
2023-08-16T15:53:14.739Z,26.60
2023-08-16T15:55:41.695Z,26.60
2023-08-16T15:58:08.509Z,26.61
2023-08-16T16:00:35.292Z,26.62
2023-08-16T16:03:02.186Z,26.63
2023-08-16T16:05:29.073Z,26.65
2023-08-16T16:07:55.940Z,26.64
2023-08-16T16:10:22.929Z,26.65
2023-08-16T16:12:49.945Z,26.66
2023-08-16T16:15:16.847Z,26.67
2023-08-16T16:17:43.791Z,26.68
2023-08-16T16:20:10.699Z,26.69
2023-08-16T16:22:37.736Z,26.69
2023-08-16T16:25:04.744Z,26.70
2023-08-16T16:27:31.682Z,26.71
2023-08-16T16:29:58.641Z,26.71
2023-08-16T16:32:25.752Z,26.71
2023-08-16T16:34:53.069Z,26.72
2023-08-16T16:37:19.906Z,26.72
2023-08-16T16:39:46.731Z,26.76
2023-08-16T16:42:13.612Z,26.76
2023-08-16T16:44:40.512Z,26.76
2023-08-16T16:47:07.412Z,26.77
2023-08-16T16:49:34.228Z,26.77
2023-08-16T16:52:01.035Z,26.78
2023-08-16T16:54:28.055Z,26.81
2023-08-16T16:56:54.930Z,26.80
2023-08-16T16:59:21.936Z,26.79
2023-08-16T17:01:48.842Z,26.85
2023-08-16T17:04:15.718Z,26.89
2023-08-16T17:06:42.684Z,26.90
2023-08-16T17:09:09.599Z,26.92
2023-08-16T17:11:36.538Z,26.92
2023-08-16T17:14:03.477Z,26.91
2023-08-16T17:16:30.403Z,26.88
2023-08-16T17:18:57.478Z,26.88
2023-08-16T17:21:24.293Z,26.88
2023-08-16T17:23:51.407Z,26.87
2023-08-16T17:26:18.263Z,26.88
2023-08-16T17:28:45.105Z,26.87
2023-08-16T17:31:12.183Z,26.88
2023-08-16T17:33:39.046Z,26.88
2023-08-16T17:36:08.349Z,26.88
2023-08-16T17:38:35.296Z,26.89
2023-08-16T17:41:02.223Z,26.89
2023-08-16T17:43:29.125Z,26.91
2023-08-16T17:45:56.093Z,26.91
2023-08-16T17:48:23.000Z,26.92
2023-08-16T17:50:49.860Z,26.91
2023-08-16T17:53:16.866Z,26.93
2023-08-16T17:55:44.256Z,26.91
2023-08-16T17:58:11.581Z,26.94
2023-08-16T18:00:38.480Z,26.92
2023-08-16T18:03:05.449Z,26.93
2023-08-16T18:05:32.601Z,26.95
2023-08-16T18:07:59.480Z,26.94
2023-08-16T18:10:26.287Z,26.95
2023-08-16T18:12:53.148Z,26.96
2023-08-16T18:15:20.107Z,26.97
2023-08-16T18:17:46.936Z,26.97
2023-08-16T18:20:13.840Z,26.95
2023-08-16T18:22:40.748Z,26.97
2023-08-16T18:25:07.616Z,26.98
2023-08-16T18:27:34.698Z,26.98
2023-08-16T18:30:01.605Z,26.99
2023-08-16T18:32:28.668Z,26.99
2023-08-16T18:34:56.072Z,26.96
2023-08-16T18:37:23.266Z,26.96
2023-08-16T18:39:50.342Z,26.97
2023-08-16T18:42:17.212Z,26.80
2023-08-16T18:44:44.160Z,26.36
2023-08-16T18:47:11.215Z,26.17
2023-08-16T18:49:38.046Z,26.10
2023-08-16T18:52:04.959Z,25.99
2023-08-16T18:54:31.789Z,25.89
2023-08-16T18:56:58.811Z,25.97
2023-08-16T18:59:25.673Z,25.57
2023-08-16T19:01:52.715Z,25.29
2023-08-16T19:04:19.645Z,25.31
2023-08-16T19:06:46.470Z,25.58
2023-08-16T19:09:13.346Z,25.70
2023-08-16T19:11:40.351Z,25.69
2023-08-16T19:14:07.229Z,25.38
2023-08-16T19:16:34.221Z,25.43
2023-08-16T19:19:01.137Z,25.58
2023-08-16T19:21:28.015Z,25.53
2023-08-16T19:23:57.607Z,25.87
2023-08-16T19:26:24.881Z,26.38
2023-08-16T19:28:51.832Z,25.83
2023-08-16T19:31:18.805Z,25.73
2023-08-16T19:33:45.752Z,25.71
2023-08-16T19:36:12.671Z,25.84
2023-08-16T19:38:39.764Z,25.80
2023-08-16T19:41:06.656Z,25.81
2023-08-16T19:43:33.570Z,25.65
2023-08-16T19:46:00.565Z,25.76
2023-08-16T19:48:27.499Z,25.72
2023-08-16T19:50:54.329Z,25.85
2023-08-16T19:53:21.202Z,25.52
2023-08-16T19:55:48.038Z,26.15
2023-08-16T19:58:14.849Z,25.88
2023-08-16T20:00:41.785Z,26.10
2023-08-16T20:03:08.727Z,26.35
2023-08-16T20:05:35.629Z,26.16
2023-08-16T20:08:05.039Z,26.23
2023-08-16T20:10:31.924Z,26.20
2023-08-16T20:12:58.919Z,26.08
2023-08-16T20:15:27.214Z,26.17
2023-08-16T20:17:54.049Z,25.96
2023-08-16T20:20:20.897Z,25.87
2023-08-16T20:22:47.837Z,25.91
2023-08-16T20:25:14.678Z,25.68
2023-08-16T20:27:41.539Z,25.40
2023-08-16T20:30:08.399Z,25.39
2023-08-16T20:32:35.272Z,25.39
2023-08-16T20:35:02.227Z,25.36
2023-08-16T20:37:29.345Z,25.49
2023-08-16T20:39:56.223Z,25.16
2023-08-16T20:42:23.159Z,25.39
2023-08-16T20:44:50.277Z,25.23
2023-08-16T20:47:17.173Z,24.99
2023-08-16T20:49:43.945Z,25.02
2023-08-16T20:52:10.948Z,25.17
2023-08-16T20:54:37.838Z,25.28
2023-08-16T20:57:04.684Z,25.42
2023-08-16T20:59:31.534Z,25.57
2023-08-16T21:01:58.352Z,25.60
2023-08-16T21:04:25.254Z,25.44
2023-08-16T21:06:52.149Z,25.77
2023-08-16T21:09:18.959Z,25.78
2023-08-16T21:11:45.856Z,25.71
2023-08-16T21:14:12.867Z,25.59
2023-08-16T21:16:39.752Z,25.40
2023-08-16T21:19:06.572Z,25.32
2023-08-16T21:21:33.445Z,25.31
2023-08-16T21:24:00.458Z,25.38
2023-08-16T21:26:27.394Z,25.62
2023-08-16T21:28:54.309Z,25.55
2023-08-16T21:31:21.230Z,25.33
2023-08-16T21:33:48.095Z,25.33
2023-08-16T21:36:14.926Z,25.43
2023-08-16T21:38:41.953Z,25.54
2023-08-16T21:41:08.933Z,25.69
2023-08-16T21:43:35.736Z,25.17
2023-08-16T21:46:02.617Z,25.32
2023-08-16T21:48:29.622Z,25.31
2023-08-16T21:50:56.546Z,25.25
2023-08-16T21:53:23.427Z,25.46
2023-08-16T21:55:50.525Z,25.38
2023-08-16T21:58:17.446Z,25.33
2023-08-16T22:00:44.406Z,25.25
2023-08-16T22:03:11.371Z,25.30
2023-08-16T22:05:38.415Z,25.55
2023-08-16T22:08:05.342Z,25.41
2023-08-16T22:10:32.145Z,25.19
2023-08-16T22:12:59.024Z,25.40
2023-08-16T22:15:25.926Z,25.33
2023-08-16T22:17:52.959Z,25.54
2023-08-16T22:20:19.847Z,25.42
2023-08-16T22:22:46.843Z,25.37
2023-08-16T22:25:13.840Z,25.29
2023-08-16T22:27:40.711Z,25.33
2023-08-16T22:30:07.643Z,25.41
2023-08-16T22:32:34.480Z,25.20
2023-08-16T22:35:01.462Z,25.02
2023-08-16T22:37:28.717Z,25.04
2023-08-16T22:39:55.758Z,25.11
2023-08-16T22:42:22.881Z,24.93
2023-08-16T22:44:49.779Z,24.95
2023-08-16T22:47:16.738Z,25.00
2023-08-16T22:49:43.723Z,24.95
2023-08-16T22:52:10.737Z,25.23
2023-08-16T22:54:37.631Z,25.10
2023-08-16T22:57:04.477Z,25.10
2023-08-16T22:59:31.383Z,25.16
2023-08-16T23:01:58.339Z,25.26
2023-08-16T23:04:25.210Z,25.27
2023-08-16T23:06:52.281Z,25.20
2023-08-16T23:09:19.184Z,25.35
2023-08-16T23:11:46.008Z,25.40
2023-08-16T23:14:12.912Z,25.15
2023-08-16T23:16:39.976Z,25.23
2023-08-16T23:19:06.890Z,25.32
2023-08-16T23:21:33.757Z,25.15
2023-08-16T23:24:00.787Z,25.19
2023-08-16T23:26:27.733Z,24.95
2023-08-16T23:28:54.684Z,24.81
2023-08-16T23:31:21.541Z,24.76
2023-08-16T23:33:48.425Z,24.96
2023-08-16T23:36:15.263Z,24.84
2023-08-16T23:38:42.192Z,24.77
2023-08-16T23:41:09.076Z,24.95
2023-08-16T23:43:36.014Z,24.96
2023-08-16T23:46:02.872Z,25.06
2023-08-16T23:48:29.940Z,24.99
2023-08-16T23:50:56.922Z,24.99
2023-08-16T23:53:23.821Z,24.92
2023-08-16T23:55:50.667Z,24.97
2023-08-16T23:58:17.475Z,24.97
